createdAt,value
2023-05-04T06:34:11.391Z,15.00
2023-05-04T07:16:00.952Z,15.20
2023-05-04T09:06:14.916Z,16.00
2023-05-04T09:10:25.563Z,16.00
2023-05-04T09:14:36.696Z,15.90
2023-05-04T09:18:46.448Z,16.00
2023-05-04T09:23:07.634Z,16.00
2023-05-04T09:27:18.463Z,16.30
2023-05-04T09:31:28.538Z,16.40
2023-05-04T09:35:43.622Z,16.40
2023-05-04T09:40:00.352Z,16.50
2023-05-04T09:44:20.529Z,16.70
2023-05-04T09:48:30.909Z,16.60
2023-05-04T09:52:40.739Z,16.40
2023-05-04T09:56:55.057Z,16.20
2023-05-04T10:01:04.501Z,16.50
2023-05-04T10:05:18.737Z,16.90
2023-05-04T10:09:47.988Z,17.10
2023-05-04T10:13:59.125Z,17.10
2023-05-04T10:18:21.266Z,17.10
2023-05-04T10:22:47.935Z,17.10
2023-05-04T10:27:06.141Z,17.10
2023-05-04T10:31:18.317Z,16.90
2023-05-04T10:35:27.973Z,16.90
2023-05-04T10:39:37.892Z,16.70
2023-05-04T10:43:49.300Z,16.90
2023-05-04T10:48:01.418Z,17.00
2023-05-04T10:52:12.859Z,17.20
2023-05-04T10:56:42.421Z,17.40
2023-05-04T11:00:56.452Z,17.30
2023-05-04T11:10:08.812Z,17.30
2023-05-04T11:14:27.678Z,17.00
2023-05-04T11:18:37.793Z,16.70
2023-05-04T11:22:47.748Z,16.50
2023-05-04T11:26:58.647Z,16.10
2023-05-04T11:31:17.777Z,15.90
2023-05-04T11:35:27.043Z,15.90
2023-05-04T11:39:36.942Z,16.10
2023-05-04T11:43:49.113Z,16.50
2023-05-04T11:47:58.978Z,16.80
2023-05-04T11:52:08.756Z,16.90
2023-05-04T11:56:17.931Z,17.10
2023-05-04T12:00:39.879Z,17.00
2023-05-04T12:04:49.504Z,17.00
2023-05-04T12:09:04.830Z,16.90
2023-05-04T12:13:23.825Z,17.20
2023-05-04T12:17:43.932Z,17.80
2023-05-04T12:22:02.765Z,18.00
2023-05-04T12:31:17.607Z,18.30
2023-05-04T12:35:28.657Z,19.00
2023-05-04T12:44:19.956Z,19.70
2023-05-04T12:48:33.085Z,19.80
2023-05-04T13:03:18.198Z,18.60
2023-05-04T13:07:47.383Z,18.50
2023-05-04T13:12:54.672Z,18.50
2023-05-04T13:17:26.127Z,18.50
2023-05-04T13:21:43.903Z,18.70
2023-05-04T13:26:18.888Z,19.00
2023-05-04T13:30:36.211Z,19.00
2023-05-04T13:35:15.631Z,19.20
2023-05-04T13:40:09.610Z,19.30
2023-05-04T14:07:06.056Z,19.90
2023-05-04T14:11:53.479Z,19.80
2023-05-04T14:16:54.033Z,19.90
2023-05-04T14:21:20.817Z,19.90
2023-05-04T14:25:34.780Z,19.90
2023-05-04T14:29:51.935Z,19.90
2023-05-04T14:34:25.614Z,19.90
2023-05-04T15:03:09.953Z,18.50
2023-05-04T15:07:33.979Z,18.20
2023-05-04T15:11:44.150Z,18.10
2023-05-04T15:15:53.732Z,18.00
2023-05-04T15:20:05.772Z,18.00
2023-05-04T15:24:15.449Z,18.20
2023-05-04T15:28:26.528Z,18.20
2023-05-04T15:42:39.894Z,17.70
2023-05-04T15:46:55.996Z,17.80
2023-05-04T15:51:05.757Z,17.90
2023-05-04T16:01:13.151Z,17.90
2023-05-04T18:44:17.780Z,16.40
2023-05-04T18:53:14.438Z,16.20
2023-05-04T18:57:29.418Z,16.10
2023-05-04T19:01:49.176Z,16.00
2023-05-04T19:06:17.675Z,16.00
2023-05-04T19:10:27.337Z,15.90
2023-05-04T19:14:38.255Z,15.90
2023-05-04T19:19:00.432Z,15.80
2023-05-04T19:23:12.840Z,15.90
2023-05-04T19:27:23.377Z,15.70
2023-05-04T19:31:52.518Z,15.60
2023-05-04T19:36:07.506Z,15.60
2023-05-04T19:40:17.077Z,15.50
2023-05-04T19:44:26.755Z,15.50
2023-05-04T19:48:54.220Z,15.40
2023-05-04T19:53:06.656Z,15.40
2023-05-04T19:57:17.998Z,15.40
2023-05-04T20:01:38.178Z,15.40
2023-05-04T20:06:05.398Z,15.40
2023-05-04T20:24:13.310Z,15.30
2023-05-04T20:28:26.951Z,15.20
2023-05-04T20:33:07.174Z,15.30
2023-05-04T20:38:06.490Z,15.30
2023-05-04T20:42:44.454Z,15.10
2023-05-04T20:47:06.817Z,15.10
2023-05-04T21:01:05.126Z,15.10
2023-05-04T21:05:22.716Z,15.00
2023-05-04T21:09:32.113Z,15.00
2023-05-04T21:13:41.341Z,14.90
2023-05-04T21:18:01.078Z,14.90
2023-05-04T21:22:10.693Z,14.90
2023-05-04T21:26:20.402Z,14.80
2023-05-04T21:30:30.085Z,14.90
2023-05-04T21:34:40.963Z,14.80
2023-05-04T21:38:50.294Z,15.00
2023-05-04T21:43:02.090Z,15.00
2023-05-04T21:47:12.938Z,15.00
2023-05-04T21:51:23.908Z,15.10
2023-05-04T21:55:33.592Z,15.10
2023-05-04T21:59:43.005Z,14.90
2023-05-04T22:03:53.451Z,15.00
2023-05-04T22:08:04.510Z,14.90
2023-05-04T22:12:13.957Z,14.90
2023-05-04T22:16:23.463Z,14.80
2023-05-04T22:20:33.771Z,14.80
2023-05-04T22:24:45.034Z,14.80
2023-05-04T22:28:55.212Z,14.90
2023-05-04T22:33:05.490Z,14.90
2023-05-04T22:37:14.892Z,15.00
2023-05-04T22:41:26.553Z,15.00
2023-05-04T22:45:37.831Z,15.00
2023-05-04T22:49:47.174Z,15.10
2023-05-04T22:53:56.373Z,15.10
2023-05-04T22:58:07.278Z,15.10
2023-05-04T23:02:16.872Z,15.10
2023-05-04T23:06:27.437Z,15.10
2023-05-04T23:10:36.991Z,15.00
2023-05-04T23:14:51.651Z,14.90
2023-05-04T23:19:02.928Z,14.90
2023-05-04T23:23:12.329Z,14.90
2023-05-04T23:27:21.770Z,14.90
2023-05-04T23:31:33.097Z,14.90
2023-05-04T23:35:42.752Z,14.80
2023-05-04T23:39:52.211Z,14.80
2023-05-04T23:44:03.114Z,14.70
2023-05-04T23:48:14.396Z,14.80
2023-05-04T23:52:23.876Z,14.80
2023-05-04T23:56:34.152Z,14.80
